Time;durP1;ratioP1;P1;durP2;ratioP2;P2;SDS_P1;SDS_P2;PMS_P1;PMS_P2;Temp;Humidity;BMP_temperature;BMP_pressure;BME280_temperature;BME280_humidity;BME280_pressure;Samples;Min_cycle;Max_cycle;Signal;HPM_P1;HPM_P2
2022/08/12 00:43:15;;;;;;;3.50;2.60;;;18.00;99.90;;;;;;10282768;28;20385;-79
2022/08/12 00:48:38;;;;;;;3.65;2.40;;;17.90;99.90;;;;;;10282446;29;20389;-82
2022/08/12 00:53:59;;;;;;;5.05;2.45;;;17.90;99.90;;;;;;10263982;28;20374;-79
2022/08/12 00:59:24;;;;;;;2.92;2.45;;;17.80;99.90;;;;;;10308005;28;20202;-80
2022/08/12 01:16:10;;;;;;;5.03;2.88;;;17.60;99.90;;;;;;10280436;29;20238;-80
2022/08/12 01:21:54;;;;;;;3.33;2.20;;;17.60;99.90;;;;;;10278471;28;20238;-79
2022/08/12 01:27:18;;;;;;;6.45;2.55;;;17.60;99.90;;;;;;10252999;28;20195;-79
2022/08/12 01:32:45;;;;;;;2.85;2.30;;;17.50;99.90;;;;;;10275165;28;20253;-79
2022/08/12 01:38:10;;;;;;;2.58;2.28;;;17.50;99.90;;;;;;10287248;28;20198;-78
2022/08/12 01:43:33;;;;;;;2.75;2.40;;;17.50;99.90;;;;;;10284827;28;20202;-80
2022/08/12 01:49:14;;;;;;;4.18;2.53;;;17.40;99.90;;;;;;10280027;29;20206;-80
2022/08/12 01:54:42;;;;;;;2.85;2.33;;;17.40;99.90;;;;;;10308918;28;20198;-79
2022/08/12 02:00:11;;;;;;;2.78;2.25;;;17.30;1.00;;;;;;10319690;28;20194;-81
2022/08/12 02:11:33;;;;;;;4.25;2.40;;;17.20;1.00;;;;;;10294994;28;20233;-82
2022/08/12 02:17:21;;;;;;;3.58;2.60;;;17.20;1.00;;;;;;10264961;29;20192;-81
2022/08/12 02:22:44;;;;;;;3.28;2.42;;;17.10;99.90;;;;;;10250644;28;20218;-82
2022/08/12 02:28:05;;;;;;;4.93;2.97;;;17.10;99.90;;;;;;10320361;28;20268;-81
2022/08/12 02:33:28;;;;;;;3.40;2.55;;;17.00;1.00;;;;;;10299743;28;20382;-82
2022/08/12 02:38:51;;;;;;;3.45;2.63;;;16.90;1.00;;;;;;10277370;29;20194;-82
2022/08/12 02:44:16;;;;;;;4.80;2.67;;;16.90;1.00;;;;;;10301095;28;20405;-82
2022/08/12 02:49:45;;;;;;;5.35;2.30;;;16.90;1.00;;;;;;10251332;29;20306;-82
2022/08/12 02:55:13;;;;;;;4.68;3.00;;;16.80;1.00;;;;;;10294391;28;20277;-82
2022/08/12 03:00:38;;;;;;;3.97;2.38;;;16.70;1.00;;;;;;10317471;28;20194;-82
2022/08/12 03:06:21;;;;;;;6.35;2.67;;;16.80;1.00;;;;;;10295213;28;20202;-82
2022/08/12 03:12:02;;;;;;;3.92;2.55;;;16.70;1.00;;;;;;10285723;28;20417;-82
2022/08/12 03:17:42;;;;;;;3.67;3.03;;;16.60;1.00;;;;;;10286212;28;20249;-82
2022/08/12 03:23:05;;;;;;;4.95;3.15;;;16.70;1.00;;;;;;10271596;28;20205;-82
2022/08/12 03:34:12;;;;;;;3.70;2.60;;;16.60;1.00;;;;;;10281230;28;20198;-82
2022/08/12 04:02:23;;;;;;;7.43;3.58;;;16.80;1.00;;;;;;10277271;28;20242;-82
2022/08/12 04:07:44;;;;;;;6.68;3.80;;;16.90;1.00;;;;;;10284489;28;20202;-82
2022/08/12 04:13:17;;;;;;;9.13;4.00;;;16.90;1.00;;;;;;10257827;28;20226;-81
2022/08/12 04:18:39;;;;;;;4.78;3.30;;;17.00;1.00;;;;;;10274751;28;20194;-82
2022/08/12 04:24:01;;;;;;;11.65;3.50;;;17.00;1.00;;;;;;10259660;28;20206;-82
2022/08/12 04:29:22;;;;;;;5.07;3.55;;;17.10;1.00;;;;;;10299724;28;20230;-82
2022/08/12 04:34:44;;;;;;;5.07;3.30;;;17.20;1.00;;;;;;10283512;28;20198;-82
2022/08/12 04:40:10;;;;;;;13.77;4.70;;;17.30;1.00;;;;;;10313485;28;20389;-81
2022/08/12 04:45:31;;;;;;;7.72;4.43;;;17.50;1.00;;;;;;10282855;28;20242;-82
2022/08/12 04:50:53;;;;;;;8.98;3.78;;;17.60;1.00;;;;;;10272963;29;20533;-82
2022/08/12 04:56:15;;;;;;;4.70;2.53;;;17.70;1.00;;;;;;10296137;28;20217;-82
2022/08/12 05:01:37;;;;;;;2.92;2.60;;;17.80;1.00;;;;;;10312702;28;20206;-82
2022/08/12 05:06:59;;;;;;;4.78;2.83;;;17.90;1.00;;;;;;10312907;28;20354;-82
2022/08/12 05:12:22;;;;;;;8.82;3.95;;;18.10;1.00;;;;;;10300933;28;20226;-81
2022/08/12 05:17:43;;;;;;;13.77;4.57;;;18.20;1.00;;;;;;10318607;28;20191;-81
2022/08/12 05:23:14;;;;;;;13.65;4.38;;;18.40;1.00;;;;;;10319482;28;20237;-81
2022/08/12 05:28:36;;;;;;;12.55;3.90;;;18.50;1.00;;;;;;10268400;28;20227;-79
2022/08/12 05:33:59;;;;;;;9.35;3.55;;;18.60;99.90;;;;;;10276544;28;20525;-80
2022/08/12 05:39:20;;;;;;;6.53;3.75;;;18.80;1.00;;;;;;10263251;29;20198;-78
2022/08/12 05:44:42;;;;;;;5.07;2.70;;;19.00;99.90;;;;;;10265565;29;20195;-79
2022/08/12 05:50:04;;;;;;;5.78;3.33;;;19.10;99.90;;;;;;10313268;28;20222;-78
2022/08/12 05:55:26;;;;;;;3.40;2.42;;;19.30;99.90;;;;;;10305203;28;20221;-78
2022/08/12 06:00:50;;;;;;;5.80;2.70;;;19.50;28.20;;;;;;10314818;28;20270;-80
2022/08/12 06:06:15;;;;;;;3.95;2.42;;;19.80;1.00;;;;;;10272224;29;20195;-79
2022/08/12 06:11:40;;;;;;;4.18;2.30;;;20.00;1.00;;;;;;10264287;28;20554;-80
2022/08/12 06:17:02;;;;;;;5.80;2.50;;;20.40;1.00;;;;;;10264233;29;20262;-78
2022/08/12 06:22:25;;;;;;;3.17;1.92;;;20.70;1.00;;;;;;10283924;28;20195;-78
2022/08/12 06:27:48;;;;;;;8.85;2.42;;;21.30;1.00;;;;;;10317871;28;20459;-80
2022/08/12 06:33:12;;;;;;;9.88;2.95;;;22.00;1.00;;;;;;10296943;28;20293;-80
2022/08/12 06:38:41;;;;;;;6.88;3.08;;;23.00;99.90;;;;;;10317963;28;20412;-79
2022/08/12 06:44:03;;;;;;;4.90;2.33;;;25.00;99.90;;;;;;10301603;28;20210;-80
2022/08/12 06:49:32;;;;;;;4.60;2.67;;;25.30;1.00;;;;;;10314253;28;20413;-80
2022/08/12 06:54:54;;;;;;;5.72;2.47;;;;;;;;;;10288462;28;20489;-77
2022/08/12 07:00:24;;;;;;;5.97;1.70;;;27.10;99.40;;;;;;10302034;28;20262;-78
2022/08/12 07:05:46;;;;;;;4.13;1.67;;;27.80;1.00;;;;;;10286655;28;20199;-80
2022/08/12 07:11:12;;;;;;;7.43;1.77;;;28.20;1.00;;;;;;10238249;28;20264;-81
2022/08/12 07:16:52;;;;;;;2.95;1.55;;;28.50;99.90;;;;;;10354549;28;20193;-80
2022/08/12 07:22:14;;;;;;;7.18;1.77;;;29.00;99.90;;;;;;10347214;28;20204;-83
2022/08/12 07:27:41;;;;;;;6.18;1.92;;;29.60;99.90;;;;;;10307814;28;20238;-81
2022/08/12 07:33:04;;;;;;;10.23;2.28;;;29.80;99.90;;;;;;10334829;28;20238;-84
2022/08/12 07:38:29;;;;;;;8.85;1.67;;;30.10;99.90;;;;;;10319748;28;20428;-84
2022/08/12 07:43:53;;;;;;;3.53;1.27;;;30.20;99.90;;;;;;10306857;28;20206;-82
2022/08/12 07:49:15;;;;;;;4.07;1.85;;;30.70;92.10;;;;;;10310974;28;20210;-82
2022/08/12 07:54:37;;;;;;;8.80;1.10;;;31.20;1.00;;;;;;10292528;28;20561;-82
2022/08/12 08:00:03;;;;;;;1.85;0.98;;;31.40;1.00;;;;;;10279201;28;20516;-83
2022/08/12 08:05:38;;;;;;;8.45;1.42;;;31.90;1.00;;;;;;10296375;28;20204;-85
2022/08/12 08:16:41;;;;;;;5.32;1.17;;;32.80;1.00;;;;;;10327114;28;20206;-84
2022/08/12 08:22:02;;;;;;;8.05;5.13;;;33.00;1.00;;;;;;10306244;28;20205;-84
2022/08/12 08:27:24;;;;;;;2.03;1.48;;;33.00;1.00;;;;;;10318673;28;20195;-88
2022/08/12 08:32:45;;;;;;;3.08;1.50;;;33.10;1.00;;;;;;10297789;28;20249;-87
2022/08/12 08:38:16;;;;;;;3.65;1.23;;;33.10;1.00;;;;;;10319899;28;20560;-83
2022/08/12 08:43:37;;;;;;;8.10;2.42;;;33.40;1.00;;;;;;10320670;28;20201;-84
2022/08/12 08:49:00;;;;;;;2.80;1.50;;;33.80;1.00;;;;;;10326092;28;20205;-83
2022/08/12 08:54:23;;;;;;;3.60;1.10;;;34.00;1.00;;;;;;10326106;28;20229;-83
2022/08/12 08:59:45;;;;;;;2.17;1.20;;;;;;;;;;10296353;28;20202;-83
2022/08/12 09:05:07;;;;;;;1.25;1.13;;;34.60;1.00;;;;;;10309761;28;20197;-84
2022/08/12 09:10:32;;;;;;;4.72;1.85;;;34.90;1.00;;;;;;10338884;28;20233;-84
2022/08/12 09:15:54;;;;;;;2.58;1.70;;;35.10;1.00;;;;;;10330837;28;20202;-83
2022/08/12 09:21:15;;;;;;;4.40;1.23;;;35.10;1.00;;;;;;10340907;28;20765;-84
2022/08/12 09:26:37;;;;;;;3.33;1.35;;;35.00;1.00;;;;;;10323103;28;20517;-84
2022/08/12 09:32:00;;;;;;;3.22;1.17;;;35.10;1.00;;;;;;10294178;28;20284;-84
2022/08/12 09:37:25;;;;;;;5.82;1.52;;;35.40;1.00;;;;;;10305640;28;20201;-84
2022/08/12 09:48:33;;;;;;;1.90;1.15;;;35.40;1.00;;;;;;10314066;28;20551;-88
2022/08/12 09:53:55;;;;;;;6.75;1.10;;;35.70;1.00;;;;;;10321988;28;20528;-83
2022/08/12 09:59:17;;;;;;;3.30;1.08;;;35.50;1.00;;;;;;10289187;28;20202;-88
2022/08/12 10:04:47;;;;;;;3.05;0.90;;;35.80;1.00;;;;;;10287338;28;20414;-86
2022/08/12 10:10:10;;;;;;;1.58;1.10;;;36.00;1.00;;;;;;10270555;28;20238;-83
2022/08/12 10:15:31;;;;;;;4.72;0.85;;;35.90;1.00;;;;;;10313377;28;20207;-83
2022/08/12 10:20:52;;;;;;;2.25;1.00;;;35.90;1.00;;;;;;10302363;28;20238;-82
2022/08/12 10:31:59;;;;;;;4.38;1.15;;;35.60;1.00;;;;;;10311059;28;20260;-83
2022/08/12 10:37:21;;;;;;;1.52;1.00;;;35.60;1.00;;;;;;10299158;28;20202;-86
2022/08/12 10:48:24;;;;;;;2.15;1.13;;;36.00;1.00;;;;;;10327885;28;20213;-94
2022/08/12 10:53:50;;;;;;;7.93;2.22;;;36.20;1.00;;;;;;10284239;28;20257;-83
2022/08/12 10:59:12;;;;;;;3.67;1.10;;;35.70;1.00;;;;;;10327730;28;20207;-83
2022/08/12 11:04:37;;;;;;;3.53;1.20;;;35.40;1.00;;;;;;10280298;28;20355;-83
2022/08/12 11:10:03;;;;;;;1.92;1.20;;;35.50;1.00;;;;;;10270576;28;20208;-83
2022/08/12 11:15:25;;;;;;;2.80;1.00;;;35.70;1.00;;;;;;10257152;29;20278;-83
2022/08/12 11:20:46;;;;;;;3.10;1.08;;;35.90;1.00;;;;;;10291098;28;20210;-83
2022/08/12 11:26:08;;;;;;;6.35;0.93;;;36.00;1.00;;;;;;10297420;28;20209;-84
2022/08/12 11:31:30;;;;;;;3.05;1.10;;;36.10;1.00;;;;;;10295731;28;20495;-85
2022/08/12 11:36:53;;;;;;;1.85;1.23;;;35.90;1.00;;;;;;10288675;28;20203;-87
2022/08/12 11:42:15;;;;;;;4.82;2.08;;;36.20;1.00;;;;;;10256743;29;20405;-89
2022/08/12 11:47:37;;;;;;;1.42;1.10;;;36.20;1.00;;;;;;10242938;29;20286;-88
2022/08/12 11:52:58;;;;;;;4.95;0.98;;;36.00;1.00;;;;;;10304905;28;20225;-83
2022/08/12 11:58:20;;;;;;;1.92;1.08;;;35.90;1.00;;;;;;10309711;28;20261;-84
2022/08/12 12:03:41;;;;;;;1.40;1.27;;;36.00;1.00;;;;;;10302027;28;20202;-83
2022/08/12 12:09:04;;;;;;;2.35;1.50;;;35.90;1.00;;;;;;10257440;29;20619;-82
2022/08/12 12:14:26;;;;;;;3.88;1.00;;;35.70;1.00;;;;;;10253486;29;20230;-85
2022/08/12 12:19:48;;;;;;;2.00;1.35;;;35.30;1.00;;;;;;10267713;28;20709;-83
2022/08/12 12:25:10;;;;;;;2.47;1.25;;;35.00;1.00;;;;;;10266097;29;20210;-84
2022/08/12 12:30:32;;;;;;;2.85;1.20;;;34.50;1.00;;;;;;10241038;28;20239;-85
2022/08/12 12:35:56;;;;;;;3.83;1.52;;;34.60;1.00;;;;;;10269945;29;20231;-84
2022/08/12 12:41:17;;;;;;;2.55;1.30;;;34.60;1.00;;;;;;10268214;29;20270;-82
2022/08/12 12:46:39;;;;;;;6.00;1.15;;;33.90;1.00;;;;;;10240937;28;20768;-82
2022/08/12 12:52:00;;;;;;;1.63;1.13;;;33.90;1.00;;;;;;10268895;28;20257;-83
2022/08/12 12:57:24;;;;;;;1.63;1.10;;;33.20;1.00;;;;;;10268904;28;20195;-82
2022/08/12 13:02:52;;;;;;;1.80;1.30;;;33.50;1.00;;;;;;10283609;28;20204;-83
2022/08/12 13:08:29;;;;;;;2.17;1.33;;;33.60;1.00;;;;;;10301637;28;20238;-82
2022/08/12 13:13:52;;;;;;;22.55;2.53;;;33.20;1.00;;;;;;10309142;28;20260;-84
2022/08/12 13:19:15;;;;;;;3.75;1.85;;;33.10;1.00;;;;;;10309280;28;20497;-83
2022/08/12 13:24:39;;;;;;;1.80;1.50;;;33.20;1.00;;;;;;10333749;28;20277;-86
2022/08/12 13:30:02;;;;;;;4.63;1.30;;;32.80;1.00;;;;;;10353163;28;20308;-81
2022/08/12 13:35:29;;;;;;;3.00;1.85;;;32.20;1.00;;;;;;10301044;28;20198;-81
2022/08/12 13:40:50;;;;;;;4.82;1.30;;;32.20;1.00;;;;;;10299992;28;20434;-82
2022/08/12 13:46:15;;;;;;;6.07;1.75;;;32.30;1.00;;;;;;10314891;28;20380;-82
2022/08/12 13:51:37;;;;;;;2.13;1.60;;;32.20;1.00;;;;;;10299751;28;20242;-79
2022/08/12 13:56:58;;;;;;;5.05;1.70;;;31.90;1.00;;;;;;10313780;28;20202;-80
2022/08/12 14:02:19;;;;;;;6.53;4.28;;;31.70;1.00;;;;;;10314562;28;20202;-85
2022/08/12 14:07:51;;;;;;;3.17;2.65;;;31.40;1.00;;;;;;10280060;28;20206;-79
2022/08/12 14:13:22;;;;;;;6.70;1.58;;;31.50;1.00;;;;;;10311597;28;20242;-78
2022/08/12 14:18:44;;;;;;;9.50;7.10;;;31.50;1.00;;;;;;10298504;28;20217;-82
2022/08/12 14:24:08;;;;;;;5.13;3.10;;;31.50;1.00;;;;;;10298932;28;20258;-79
2022/08/12 14:29:30;;;;;;;3.08;1.60;;;31.40;1.00;;;;;;10317773;28;20288;-79
2022/08/12 14:34:51;;;;;;;4.65;2.08;;;31.10;1.00;;;;;;10322662;28;20241;-80
2022/08/12 14:40:14;;;;;;;2.53;2.10;;;30.80;1.00;;;;;;10351251;28;20209;-78
2022/08/12 14:45:35;;;;;;;2.75;1.70;;;30.80;1.00;;;;;;10351665;28;20209;-77
2022/08/12 14:50:57;;;;;;;4.88;2.03;;;30.80;1.00;;;;;;10341363;28;20226;-78
2022/08/12 14:56:22;;;;;;;7.07;1.70;;;30.90;1.00;;;;;;10335060;28;20285;-82
2022/08/12 15:02:03;;;;;;;1.50;1.40;;;30.60;1.00;;;;;;10320744;28;20198;-83
2022/08/12 15:07:26;;;;;;;4.90;1.50;;;30.50;1.00;;;;;;10339954;28;20198;-77
2022/08/12 15:12:49;;;;;;;2.15;1.55;;;30.40;1.00;;;;;;10357480;28;20290;-77
2022/08/12 15:18:17;;;;;;;2.40;1.30;;;30.30;1.00;;;;;;10341443;28;20187;-76
2022/08/12 15:23:39;;;;;;;5.20;1.63;;;30.00;1.00;;;;;;10358590;28;20193;-77
2022/08/12 15:29:01;;;;;;;2.17;1.45;;;29.70;1.00;;;;;;10316703;28;20237;-76
2022/08/12 15:34:22;;;;;;;3.10;2.00;;;29.60;1.00;;;;;;10396646;28;20227;-77
2022/08/12 15:39:43;;;;;;;4.03;2.22;;;29.50;1.00;;;;;;10393816;28;20205;-76
2022/08/12 15:45:05;;;;;;;4.97;1.80;;;29.50;1.00;;;;;;10378822;28;20197;-76
2022/08/12 15:50:30;;;;;;;4.00;1.65;;;29.50;1.00;;;;;;10377227;28;20276;-78
2022/08/12 15:55:52;;;;;;;4.57;1.40;;;29.30;1.00;;;;;;10355274;28;20202;-78
2022/08/12 16:01:14;;;;;;;2.60;1.48;;;29.00;1.00;;;;;;10350371;28;20202;-77
2022/08/12 16:06:36;;;;;;;3.70;1.50;;;28.90;1.00;;;;;;10328068;28;20213;-76
2022/08/12 16:12:18;;;;;;;2.85;1.33;;;28.70;1.00;;;;;;10315653;28;20229;-77
2022/08/12 16:17:41;;;;;;;10.05;1.73;;;28.50;1.00;;;;;;10315479;28;20190;-77
2022/08/12 16:23:12;;;;;;;1.58;1.42;;;28.30;1.00;;;;;;10315110;28;20199;-79
2022/08/12 16:28:33;;;;;;;4.22;1.85;;;28.30;1.00;;;;;;10314745;28;20247;-77
2022/08/12 16:33:55;;;;;;;1.92;1.73;;;28.30;1.00;;;;;;10380035;28;20256;-77
2022/08/12 16:39:16;;;;;;;3.50;1.58;;;28.20;1.00;;;;;;10381205;28;20429;-77
2022/08/12 16:44:38;;;;;;;2.95;1.20;;;28.00;1.00;;;;;;10395962;28;20268;-77
2022/08/12 16:50:05;;;;;;;6.38;1.50;;;27.90;1.00;;;;;;10367323;28;20288;-77
2022/08/12 16:55:30;;;;;;;2.65;1.45;;;27.70;1.00;;;;;;10349876;28;20229;-76
2022/08/12 17:00:54;;;;;;;3.90;1.60;;;27.50;1.00;;;;;;10340743;28;20193;-76
2022/08/12 17:06:15;;;;;;;5.68;1.85;;;27.40;1.00;;;;;;10324965;28;20197;-79
2022/08/12 17:11:38;;;;;;;1.33;1.23;;;27.30;1.00;;;;;;10337493;28;20268;-76
2022/08/12 17:17:00;;;;;;;5.40;2.08;;;27.20;1.00;;;;;;10322234;28;20222;-77
2022/08/12 17:22:27;;;;;;;2.40;1.50;;;27.10;1.00;;;;;;10321868;28;20194;-78
2022/08/12 17:27:51;;;;;;;3.20;1.52;;;27.00;1.00;;;;;;10306842;28;20246;-77
2022/08/12 17:33:18;;;;;;;2.70;1.50;;;26.80;1.00;;;;;;10381105;28;20239;-77
2022/08/12 17:38:40;;;;;;;5.65;1.30;;;26.70;1.00;;;;;;10373807;28;20260;-77
2022/08/12 17:44:01;;;;;;;2.45;1.33;;;26.50;1.00;;;;;;10387343;28;20193;-76
2022/08/12 17:49:24;;;;;;;3.13;1.65;;;26.40;1.00;;;;;;10386412;28;20224;-76
2022/08/12 17:54:51;;;;;;;7.32;1.50;;;26.30;1.00;;;;;;10361181;28;20272;-77
2022/08/12 18:00:14;;;;;;;3.72;1.83;;;26.10;1.00;;;;;;10329910;28;20252;-77
2022/08/12 18:05:37;;;;;;;4.00;1.75;;;26.00;1.00;;;;;;10319072;28;20269;-76
2022/08/12 18:16:41;;;;;;;4.30;1.83;;;25.60;1.00;;;;;;10318025;28;20359;-76
2022/08/12 18:22:04;;;;;;;4.03;1.90;;;25.60;1.00;;;;;;10304908;28;20253;-76
2022/08/12 18:27:29;;;;;;;4.78;2.90;;;25.40;1.00;;;;;;10334271;28;20396;-80
2022/08/12 18:32:54;;;;;;;7.65;6.50;;;25.30;1.00;;;;;;10389560;28;20232;-79
2022/08/12 18:38:16;;;;;;;8.57;3.30;;;;;;;;;;10382346;28;20201;-77
2022/08/12 18:43:38;;;;;;;8.02;3.15;;;25.00;1.00;;;;;;10385207;28;20219;-77
2022/08/12 18:49:00;;;;;;;3.65;2.10;;;24.80;1.00;;;;;;10384396;28;20189;-77
2022/08/12 18:54:27;;;;;;;6.50;2.58;;;24.70;1.00;;;;;;10347528;28;20221;-76
2022/08/12 18:59:50;;;;;;;6.25;2.83;;;24.60;1.00;;;;;;10327311;28;20234;-77
2022/08/12 19:05:13;;;;;;;5.07;3.03;;;24.60;1.00;;;;;;10318908;28;20206;-77
2022/08/12 19:10:40;;;;;;;5.60;3.42;;;24.50;1.00;;;;;;10317813;28;20198;-76
2022/08/12 19:16:09;;;;;;;3.92;3.15;;;24.40;1.00;;;;;;10317327;28;20274;-77
2022/08/12 19:21:32;;;;;;;6.82;2.60;;;24.30;2.20;;;;;;10317335;28;20489;-76
2022/08/12 19:26:55;;;;;;;9.20;4.47;;;24.20;24.00;;;;;;10331973;28;20226;-76
2022/08/12 19:32:21;;;;;;;11.38;6.05;;;24.10;53.30;;;;;;10373837;28;20303;-76
2022/08/12 19:37:45;;;;;;;10.98;5.40;;;23.90;99.70;;;;;;10352792;28;20487;-77
2022/08/12 19:43:11;;;;;;;7.00;4.97;;;23.70;99.90;;;;;;10397129;28;20193;-76
2022/08/12 19:48:33;;;;;;;7.75;4.82;;;23.60;99.90;;;;;;10397239;28;20193;-78
2022/08/12 19:53:58;;;;;;;6.18;4.43;;;23.60;99.90;;;;;;10332327;28;20257;-79
2022/08/12 19:59:35;;;;;;;5.53;4.13;;;23.50;1.00;;;;;;10356233;28;20201;-79
2022/08/12 20:05:02;;;;;;;5.13;3.30;;;23.40;1.00;;;;;;10332065;28;20203;-78
2022/08/12 20:10:28;;;;;;;7.07;5.05;;;23.40;1.00;;;;;;10315689;28;20194;-79
2022/08/12 20:15:51;;;;;;;9.45;6.25;;;23.30;1.00;;;;;;10314203;28;20591;-78
2022/08/12 20:21:15;;;;;;;5.80;4.90;;;23.20;1.00;;;;;;10315348;28;20266;-78
2022/08/12 20:26:40;;;;;;;3.83;2.88;;;23.20;88.70;;;;;;10315119;28;20198;-78
2022/08/12 20:32:03;;;;;;;3.08;2.38;;;23.20;99.90;;;;;;10335443;28;20248;-78
2022/08/12 20:37:27;;;;;;;2.38;1.83;;;23.20;99.90;;;;;;10395711;28;20185;-78
2022/08/12 20:42:52;;;;;;;3.20;2.30;;;23.10;99.90;;;;;;10387444;28;20263;-79
2022/08/12 20:48:13;;;;;;;4.55;1.95;;;23.00;1.00;;;;;;10386759;28;20223;-79
2022/08/12 20:53:35;;;;;;;2.90;2.35;;;22.90;1.00;;;;;;10355897;28;20523;-78
2022/08/12 20:58:58;;;;;;;3.53;2.25;;;22.90;1.00;;;;;;10363094;28;20190;-78
2022/08/12 21:10:02;;;;;;;3.60;1.65;;;22.90;99.90;;;;;;10321263;28;20519;-79
2022/08/12 21:15:25;;;;;;;2.45;1.48;;;22.80;99.90;;;;;;10307408;28;20268;-78
2022/08/12 21:20:51;;;;;;;2.08;1.67;;;22.80;1.00;;;;;;10307567;28;20191;-78
2022/08/12 21:26:13;;;;;;;2.05;1.75;;;22.80;1.00;;;;;;10307369;28;20194;-79
2022/08/12 21:31:35;;;;;;;2.30;1.90;;;22.70;1.00;;;;;;10366796;28;20244;-78
2022/08/12 21:37:04;;;;;;;2.88;1.98;;;22.60;99.90;;;;;;10384772;28;20205;-78
2022/08/12 21:42:25;;;;;;;4.43;1.95;;;22.50;1.00;;;;;;10384352;28;20201;-78
2022/08/12 21:47:46;;;;;;;5.07;1.95;;;22.40;91.10;;;;;;10387462;28;20321;-78
2022/08/12 21:53:08;;;;;;;4.25;1.90;;;22.40;99.90;;;;;;10356061;28;20441;-79
2022/08/12 21:58:29;;;;;;;3.33;2.05;;;22.40;1.00;;;;;;10359685;28;20202;-78
2022/08/12 22:09:31;;;;;;;4.45;2.15;;;22.40;99.90;;;;;;10319749;28;20275;-79
2022/08/12 22:14:53;;;;;;;2.25;2.05;;;22.30;1.00;;;;;;10319895;28;20222;-79
2022/08/12 22:20:18;;;;;;;2.35;2.10;;;22.30;99.90;;;;;;10319842;28;20195;-78
2022/08/12 22:25:40;;;;;;;2.28;1.70;;;22.30;1.00;;;;;;10334406;28;20203;-78
2022/08/12 22:31:10;;;;;;;2.13;1.92;;;22.40;1.00;;;;;;10341610;28;20252;-78
2022/08/12 22:36:31;;;;;;;2.65;2.05;;;22.40;1.00;;;;;;10368369;28;20598;-78
2022/08/12 22:47:41;;;;;;;2.53;2.00;;;22.40;99.90;;;;;;10399829;28;20193;-78
2022/08/12 22:53:15;;;;;;;3.20;2.33;;;22.30;1.00;;;;;;10358447;28;20275;-79
2022/08/12 22:58:37;;;;;;;4.75;1.95;;;22.20;99.90;;;;;;10358797;28;20401;-77
2022/08/12 23:03:59;;;;;;;4.38;1.98;;;22.20;1.00;;;;;;10343604;28;20269;-78
2022/08/12 23:09:25;;;;;;;3.22;2.13;;;22.10;99.90;;;;;;10318079;28;20191;-76
2022/08/12 23:14:47;;;;;;;3.83;1.92;;;22.10;99.90;;;;;;10316726;28;20429;-76
2022/08/12 23:20:10;;;;;;;2.60;2.03;;;22.20;99.90;;;;;;10317631;28;20261;-76
2022/08/12 23:25:32;;;;;;;5.28;1.73;;;22.20;99.90;;;;;;10317484;28;20424;-76
2022/08/12 23:30:57;;;;;;;2.22;1.80;;;22.10;1.00;;;;;;10351128;28;20237;-76
2022/08/12 23:36:21;;;;;;;2.85;1.98;;;22.10;1.00;;;;;;10380019;28;20236;-76
2022/08/12 23:41:44;;;;;;;5.60;2.03;;;22.00;1.00;;;;;;10382802;28;20196;-76
2022/08/12 23:47:10;;;;;;;3.17;1.73;;;22.00;1.00;;;;;;10397320;28;20224;-76
2022/08/12 23:52:31;;;;;;;3.05;2.13;;;22.00;1.00;;;;;;10361063;28;20226;-76
2022/08/12 23:57:52;;;;;;;1.92;1.52;;;22.10;1.00;;;;;;10356365;28;20213;-76
